createdAt,value
2022-10-10T00:00:27.261Z,62227.45
2022-10-10T00:01:31.394Z,62239.50
2022-10-10T00:02:34.482Z,62225.44
2022-10-10T00:03:50.670Z,62220.41
2022-10-10T00:04:54.059Z,62287.71
2022-10-10T00:05:57.544Z,62273.64
2022-10-10T00:07:04.009Z,62266.62
2022-10-10T00:08:07.391Z,62287.71
2022-10-10T00:09:10.709Z,62282.69
2022-10-10T00:10:14.166Z,62264.61
2022-10-10T00:12:45.424Z,62256.57
2022-10-10T00:13:49.136Z,62231.46
2022-10-10T00:14:52.807Z,62240.50
2022-10-10T00:15:57.246Z,62213.38
2022-10-10T00:17:00.600Z,62239.50
2022-10-10T00:18:04.084Z,62254.56
2022-10-10T00:19:07.583Z,62215.39
2022-10-10T00:20:14.238Z,62247.53
2022-10-10T00:21:17.819Z,62238.49
2022-10-10T00:22:22.643Z,62220.41
2022-10-10T00:23:31.172Z,62231.46
2022-10-10T00:24:35.071Z,62180.24
2022-10-10T00:25:38.653Z,62202.34
2022-10-10T00:26:49.723Z,62194.30
2022-10-10T00:27:53.815Z,62183.25
2022-10-10T00:29:03.138Z,62242.51
2022-10-10T00:30:06.429Z,62204.34
2022-10-10T00:31:10.231Z,62139.06
2022-10-10T00:32:13.818Z,62157.14
2022-10-10T00:33:24.547Z,62141.07
2022-10-10T00:34:28.166Z,62155.13
2022-10-10T00:35:31.338Z,62201.33
2022-10-10T00:36:34.152Z,62206.36
2022-10-10T00:37:44.702Z,62237.49
2022-10-10T00:38:48.482Z,62260.59
2022-10-10T00:41:12.244Z,62303.78
2022-10-10T00:42:24.491Z,62305.79
2022-10-10T00:43:27.615Z,62358.02
2022-10-10T00:44:31.976Z,62319.85
2022-10-10T00:45:36.971Z,62318.84
2022-10-10T00:46:44.843Z,62343.95
2022-10-10T00:47:48.565Z,62317.84
2022-10-10T00:48:51.406Z,62327.88
2022-10-10T00:49:54.954Z,62341.95
2022-10-10T00:50:59.100Z,62296.75
2022-10-10T00:52:02.702Z,62341.95
2022-10-10T00:53:07.208Z,62301.77
2022-10-10T00:54:11.010Z,62346.97
2022-10-10T00:55:15.210Z,62372.08
2022-10-10T00:56:20.058Z,62362.04
2022-10-10T00:57:23.994Z,62336.92
2022-10-10T00:59:48.517Z,62364.04
2022-10-10T01:00:52.051Z,62392.16
2022-10-10T01:01:55.498Z,62396.18
2022-10-10T01:02:59.503Z,62396.18
2022-10-10T01:04:03.293Z,62410.25
2022-10-10T01:05:06.779Z,62389.15
2022-10-10T01:06:10.384Z,62395.18
2022-10-10T01:08:33.846Z,62378.11
2022-10-10T01:09:37.133Z,62411.25
2022-10-10T01:10:40.206Z,62356.01
2022-10-10T01:11:43.799Z,62389.15
2022-10-10T01:12:47.957Z,62400.20
2022-10-10T01:13:52.520Z,62394.18
2022-10-10T01:14:57.335Z,62372.08
2022-10-10T01:16:14.579Z,62398.19
2022-10-10T01:17:29.341Z,62378.11
2022-10-10T01:18:35.743Z,62398.19
2022-10-10T01:19:40.377Z,62418.28
2022-10-10T01:20:45.808Z,62421.29
2022-10-10T01:21:49.113Z,62411.25
2022-10-10T01:22:54.842Z,62403.21
2022-10-10T01:23:58.235Z,62411.25
2022-10-10T01:25:02.323Z,62401.21
2022-10-10T01:26:06.134Z,62443.39
2022-10-10T01:27:09.506Z,62447.41
2022-10-10T01:28:12.737Z,62418.28
2022-10-10T01:29:15.974Z,62428.32
2022-10-10T01:30:23.254Z,62433.35
2022-10-10T01:31:26.643Z,62423.30
2022-10-10T01:32:29.711Z,62412.25
2022-10-10T01:33:33.244Z,62414.26
2022-10-10T01:35:57.508Z,62402.21
2022-10-10T01:37:01.085Z,62357.01
2022-10-10T01:38:04.568Z,62334.91
2022-10-10T01:39:07.959Z,62315.83
2022-10-10T01:40:12.585Z,62290.72
2022-10-10T01:41:17.084Z,62311.81
2022-10-10T01:42:20.076Z,62251.55
2022-10-10T01:43:26.016Z,62259.59
2022-10-10T01:44:30.119Z,62217.40
2022-10-10T01:45:33.842Z,62210.37
2022-10-10T01:46:37.703Z,62190.28
2022-10-10T01:47:52.992Z,62153.12
2022-10-10T01:48:56.777Z,62168.19
2022-10-10T01:49:59.689Z,62104.91
2022-10-10T01:51:03.122Z,62071.77
2022-10-10T01:52:06.616Z,62081.81
2022-10-10T01:53:09.809Z,62055.70
2022-10-10T01:54:13.918Z,62042.64
2022-10-10T01:55:17.919Z,61995.44
2022-10-10T01:56:21.801Z,62029.59
2022-10-10T01:58:45.793Z,61936.19
2022-10-10T02:01:18.756Z,61942.21
2022-10-10T02:02:24.103Z,61955.27
2022-10-10T02:03:34.909Z,61940.21
2022-10-10T02:05:59.750Z,61867.89
2022-10-10T02:07:06.223Z,61874.93
2022-10-10T02:08:10.632Z,61864.88
2022-10-10T02:09:14.120Z,61820.70
2022-10-10T02:10:17.430Z,61816.68
2022-10-10T02:11:20.787Z,61830.74
2022-10-10T02:12:24.382Z,61825.71
2022-10-10T02:13:28.589Z,61815.68
2022-10-10T02:14:32.186Z,61795.59
2022-10-10T02:15:35.458Z,61798.60
2022-10-10T02:16:39.259Z,61792.57
2022-10-10T02:17:43.873Z,61813.66
2022-10-10T02:18:47.159Z,61815.68
2022-10-10T02:19:50.335Z,61803.62
2022-10-10T02:20:53.414Z,61759.43
2022-10-10T02:21:56.814Z,61794.58
2022-10-10T02:23:00.104Z,61798.60
2022-10-10T02:24:03.572Z,61743.37
2022-10-10T02:25:09.314Z,61656.00
2022-10-10T02:26:12.814Z,61618.84
2022-10-10T02:27:23.430Z,61574.66
2022-10-10T02:28:32.095Z,61555.57
2022-10-10T02:29:35.463Z,61529.46
2022-10-10T02:30:41.576Z,61455.16
2022-10-10T02:31:46.133Z,61409.97
2022-10-10T02:32:50.150Z,61349.72
2022-10-10T02:33:54.222Z,61299.51
2022-10-10T02:34:58.125Z,61315.58
2022-10-10T02:36:10.023Z,61288.46
2022-10-10T02:37:13.406Z,61296.50
2022-10-10T02:38:17.125Z,61261.36
2022-10-10T02:39:21.308Z,61269.39
2022-10-10T02:40:24.489Z,61206.13
2022-10-10T02:41:29.619Z,61197.09
2022-10-10T02:42:33.818Z,61079.61
2022-10-10T02:43:37.505Z,60882.82
2022-10-10T02:44:41.308Z,60693.06
2022-10-10T02:45:45.402Z,60691.05
2022-10-10T02:46:48.897Z,60646.88
2022-10-10T02:47:53.428Z,60575.59
2022-10-10T02:48:56.902Z,60452.11
2022-10-10T02:50:26.299Z,60323.61
2022-10-10T02:51:37.078Z,60236.27
2022-10-10T02:52:41.572Z,60370.79
2022-10-10T02:53:45.674Z,60284.46
2022-10-10T02:54:48.555Z,60220.21
2022-10-10T02:55:54.780Z,60026.47
2022-10-10T02:58:20.103Z,59827.72
2022-10-10T02:59:23.595Z,59596.86
2022-10-10T03:00:27.247Z,59464.37
2022-10-10T03:01:31.231Z,59390.10
2022-10-10T03:02:34.989Z,59326.87
2022-10-10T03:03:38.371Z,59237.55
2022-10-10T03:04:50.626Z,59247.58
2022-10-10T03:05:54.478Z,59165.29
2022-10-10T03:06:57.857Z,59109.09
2022-10-10T03:08:01.689Z,59074.96
2022-10-10T03:09:05.232Z,58939.48
2022-10-10T03:10:08.733Z,58781.93
2022-10-10T03:11:12.632Z,58674.56
2022-10-10T03:12:16.008Z,58555.14
2022-10-10T03:13:19.407Z,58478.89
2022-10-10T03:14:23.399Z,58404.63
2022-10-10T03:15:26.890Z,58342.42
2022-10-10T03:16:30.587Z,58163.82
2022-10-10T03:17:35.980Z,58101.62
2022-10-10T03:18:39.202Z,58049.44
2022-10-10T03:19:42.589Z,58013.32
2022-10-10T03:22:14.688Z,57627.07
2022-10-10T03:23:19.066Z,57414.39
2022-10-10T03:24:22.353Z,57363.23
2022-10-10T03:25:25.942Z,57631.08
2022-10-10T03:26:33.659Z,57625.06
2022-10-10T03:28:59.646Z,57533.77
2022-10-10T03:30:03.041Z,57439.47
2022-10-10T03:31:06.980Z,57316.09
2022-10-10T03:32:11.303Z,57315.08
2022-10-10T03:33:15.242Z,57309.06
2022-10-10T03:34:18.534Z,57295.02
2022-10-10T03:35:23.345Z,57278.97
2022-10-10T03:36:31.550Z,57223.80
2022-10-10T03:37:35.138Z,57198.72
2022-10-10T03:38:39.142Z,57186.68
2022-10-10T03:39:43.550Z,57279.97
2022-10-10T03:40:52.180Z,57282.98
2022-10-10T03:41:55.508Z,57247.87
2022-10-10T03:42:59.043Z,57205.74
2022-10-10T03:44:06.523Z,57098.41
2022-10-10T03:45:10.344Z,57042.24
2022-10-10T03:46:16.274Z,56987.07
2022-10-10T03:47:18.740Z,56994.09
2022-10-10T03:48:22.622Z,56974.03
2022-10-10T03:49:26.127Z,56959.99
2022-10-10T03:50:30.229Z,56990.08
2022-10-10T03:51:41.671Z,56994.09
2022-10-10T03:52:46.311Z,57003.12
2022-10-10T03:53:49.796Z,57061.30
2022-10-10T03:54:53.404Z,57097.41
2022-10-10T03:55:56.580Z,57090.39
2022-10-10T03:56:59.961Z,57013.15
2022-10-10T03:58:03.848Z,56994.09
2022-10-10T03:59:07.035Z,56950.96
2022-10-10T04:00:10.747Z,56902.82
2022-10-10T04:01:14.404Z,56924.88
2022-10-10T04:02:17.507Z,56905.82
2022-10-10T04:03:21.301Z,56923.88
2022-10-10T04:04:24.591Z,56979.05
2022-10-10T04:05:28.185Z,57007.13
2022-10-10T04:06:31.563Z,56998.11
2022-10-10T04:07:35.367Z,57046.25
2022-10-10T04:08:42.571Z,56999.11
2022-10-10T04:09:48.622Z,56980.05
2022-10-10T04:10:52.289Z,56977.04
2022-10-10T04:11:56.068Z,56951.96
2022-10-10T04:13:02.935Z,56915.86
2022-10-10T04:14:07.761Z,56803.52
2022-10-10T04:15:12.402Z,56765.41
2022-10-10T04:16:15.561Z,56727.29
2022-10-10T04:17:19.000Z,56712.25
2022-10-10T04:19:45.546Z,56669.12
2022-10-10T04:20:48.558Z,56416.38
2022-10-10T04:21:51.438Z,56424.40
2022-10-10T04:22:56.572Z,56444.46
2022-10-10T04:24:01.498Z,56372.25
2022-10-10T04:25:10.002Z,56324.11
2022-10-10T04:26:18.911Z,56310.07
2022-10-10T04:27:22.439Z,55980.14
2022-10-10T04:28:27.174Z,55888.89
2022-10-10T04:29:32.240Z,55814.68
2022-10-10T04:30:35.229Z,55744.49
2022-10-10T04:33:01.974Z,55778.58
2022-10-10T04:34:06.082Z,55724.43
2022-10-10T04:35:27.172Z,55696.36
2022-10-10T04:36:35.601Z,55774.57
2022-10-10T04:38:59.151Z,55794.62
2022-10-10T04:41:26.475Z,55882.87
2022-10-10T04:42:30.032Z,55944.04
2022-10-10T04:43:33.162Z,56000.20
2022-10-10T04:45:57.762Z,56010.22
2022-10-10T04:47:01.050Z,56045.32
2022-10-10T04:49:35.084Z,55924.98
2022-10-10T04:50:38.237Z,55971.11
2022-10-10T04:51:41.540Z,55854.79
2022-10-10T04:52:44.396Z,55738.47
2022-10-10T04:53:55.457Z,55669.29
2022-10-10T04:54:59.055Z,55633.19
2022-10-10T04:56:02.651Z,55653.24
2022-10-10T04:57:14.035Z,55615.14
2022-10-10T04:58:18.734Z,55562.00
2022-10-10T04:59:25.606Z,55632.18
2022-10-10T05:00:39.341Z,55557.98
2022-10-10T05:01:43.329Z,55505.84
2022-10-10T05:04:18.476Z,55355.45
2022-10-10T05:06:42.348Z,55299.30
2022-10-10T05:07:45.498Z,55356.45
2022-10-10T05:09:06.226Z,55436.66
2022-10-10T05:10:09.715Z,55547.96
2022-10-10T05:11:24.776Z,55554.98
2022-10-10T05:12:28.885Z,55517.88
2022-10-10T05:13:32.475Z,55577.04
2022-10-10T05:14:36.571Z,55593.08
2022-10-10T05:15:42.922Z,55668.28
2022-10-10T05:16:46.110Z,55664.27
2022-10-10T05:17:49.694Z,55701.37
2022-10-10T05:18:53.602Z,55676.30
2022-10-10T05:19:57.303Z,55710.39
2022-10-10T05:21:03.598Z,55678.31
2022-10-10T05:22:05.504Z,55620.15
2022-10-10T05:23:08.786Z,55572.02
2022-10-10T05:24:12.080Z,55541.94
2022-10-10T05:25:15.662Z,55514.87
2022-10-10T05:26:19.764Z,55527.90
2022-10-10T05:27:22.972Z,55510.86
2022-10-10T05:28:26.389Z,55567.01
2022-10-10T05:29:30.430Z,55640.20
2022-10-10T05:30:33.835Z,55635.19
2022-10-10T05:31:37.417Z,55593.08
2022-10-10T05:32:40.387Z,55616.14
2022-10-10T05:33:46.057Z,55618.14
2022-10-10T05:34:50.231Z,55617.14
2022-10-10T05:35:53.415Z,55572.02
2022-10-10T05:36:57.007Z,55552.97
2022-10-10T05:37:59.988Z,55589.07
2022-10-10T05:39:03.890Z,55623.16
2022-10-10T05:40:06.867Z,55633.19
2022-10-10T05:41:10.351Z,55631.18
2022-10-10T05:42:13.846Z,55694.35
2022-10-10T05:43:20.013Z,55696.36
2022-10-10T05:44:23.482Z,55643.21
2022-10-10T05:45:27.480Z,55677.30
2022-10-10T05:46:30.993Z,55698.36
2022-10-10T05:47:34.156Z,55717.41
2022-10-10T05:48:37.233Z,55739.48
2022-10-10T05:49:40.617Z,55714.41
2022-10-10T05:50:44.418Z,55683.32
2022-10-10T05:51:47.502Z,55708.39
2022-10-10T05:52:53.258Z,55759.53
2022-10-10T05:53:56.707Z,55723.43
2022-10-10T05:55:00.119Z,55834.73
2022-10-10T05:56:03.473Z,55820.70
2022-10-10T05:57:13.944Z,55786.60
2022-10-10T05:58:14.262Z,55847.77
2022-10-10T05:59:17.353Z,55820.70
2022-10-10T06:00:20.942Z,55855.79
2022-10-10T06:01:24.434Z,55836.74
2022-10-10T06:02:27.632Z,55853.79
2022-10-10T06:03:30.890Z,55921.98
2022-10-10T06:04:34.069Z,55892.89
2022-10-10T06:05:37.869Z,55901.92
2022-10-10T06:06:41.174Z,55912.95
2022-10-10T06:08:04.693Z,55946.04
2022-10-10T06:08:49.089Z,55924.98
2022-10-10T06:09:52.641Z,55949.05
2022-10-10T06:11:02.169Z,56001.20
2022-10-10T06:12:05.266Z,55958.08
2022-10-10T06:13:09.153Z,56001.20
2022-10-10T06:14:12.697Z,56011.23
2022-10-10T06:15:16.152Z,56017.24
2022-10-10T06:16:21.565Z,56012.23
2022-10-10T06:17:25.028Z,55892.89
2022-10-10T06:18:28.865Z,55894.90
2022-10-10T06:19:33.371Z,55888.89
2022-10-10T06:20:36.650Z,55837.75
2022-10-10T06:21:40.563Z,55844.76
2022-10-10T06:22:44.455Z,55818.69
2022-10-10T06:23:47.427Z,55777.58
2022-10-10T06:24:53.110Z,55810.67
2022-10-10T06:25:56.551Z,55780.59
2022-10-10T06:27:00.258Z,55790.62
2022-10-10T06:28:05.292Z,55789.61
2022-10-10T06:29:10.093Z,55826.71
2022-10-10T06:30:13.272Z,55871.84
2022-10-10T06:31:16.777Z,55911.95
2022-10-10T06:32:20.714Z,55899.92
2022-10-10T06:33:24.374Z,55903.93
2022-10-10T06:34:28.039Z,55905.93
2022-10-10T06:35:31.543Z,55878.86
2022-10-10T06:36:34.736Z,55895.91
2022-10-10T06:37:38.103Z,55892.89
2022-10-10T06:38:41.815Z,55945.04
2022-10-10T06:39:44.799Z,55919.97
2022-10-10T06:40:47.753Z,55923.98
2022-10-10T06:41:51.058Z,55947.05
2022-10-10T06:42:54.952Z,55926.99
2022-10-10T06:43:59.378Z,55975.12
2022-10-10T06:45:03.561Z,55977.13
2022-10-10T06:46:07.372Z,55958.08
2022-10-10T06:47:10.941Z,55949.05
2022-10-10T06:48:14.342Z,55888.89
2022-10-10T06:49:17.607Z,55887.88
2022-10-10T06:50:20.910Z,55918.97
2022-10-10T06:51:24.800Z,55891.89
2022-10-10T06:52:34.643Z,55898.91
2022-10-10T06:53:57.592Z,55911.95
2022-10-10T06:55:04.451Z,55929.00
2022-10-10T06:56:07.850Z,55947.05
2022-10-10T06:58:38.259Z,55959.08
2022-10-10T07:01:04.676Z,56049.33
2022-10-10T07:03:31.048Z,56147.61
2022-10-10T07:04:34.826Z,56245.89
2022-10-10T07:06:58.801Z,56280.99
2022-10-10T07:08:02.391Z,56349.18
2022-10-10T07:09:06.823Z,56330.13
2022-10-10T07:10:16.335Z,56416.38
2022-10-10T07:11:19.455Z,56417.38
2022-10-10T07:12:33.715Z,56319.10
2022-10-10T07:13:39.898Z,56350.19
2022-10-10T07:14:43.987Z,56385.29
2022-10-10T07:16:00.885Z,56414.37
2022-10-10T07:17:03.682Z,56416.38
2022-10-10T07:18:06.974Z,56460.50
2022-10-10T07:19:09.889Z,56460.50
2022-10-10T07:20:23.675Z,56417.38
2022-10-10T07:21:28.988Z,56446.46
2022-10-10T07:22:33.628Z,56431.42
2022-10-10T07:23:37.674Z,56359.21
2022-10-10T07:24:45.533Z,56412.37
2022-10-10T07:25:51.431Z,56431.42
2022-10-10T07:27:02.352Z,56408.36
2022-10-10T07:27:59.980Z,56410.36
2022-10-10T07:29:09.928Z,56387.29
2022-10-10T07:30:12.906Z,56454.49
2022-10-10T07:31:16.534Z,56444.46
2022-10-10T07:32:19.937Z,56442.45
2022-10-10T07:33:25.621Z,56407.35
2022-10-10T07:34:29.028Z,56459.50
2022-10-10T07:35:41.256Z,56493.60
2022-10-10T07:36:45.420Z,56465.52
2022-10-10T07:39:10.188Z,56461.51
2022-10-10T07:40:15.126Z,56460.50
2022-10-10T07:41:18.711Z,56452.48
2022-10-10T07:42:22.106Z,56444.46
2022-10-10T07:43:27.832Z,56454.49
2022-10-10T07:44:34.571Z,56501.63
2022-10-10T07:45:48.123Z,56492.60
2022-10-10T07:46:51.620Z,56504.63
2022-10-10T07:47:58.295Z,56509.65
2022-10-10T07:49:01.768Z,56474.55
2022-10-10T07:50:08.192Z,56454.49
2022-10-10T07:51:12.124Z,56492.60
2022-10-10T07:52:15.813Z,56482.57
2022-10-10T07:53:19.921Z,56504.63
2022-10-10T07:54:23.620Z,56516.67
2022-10-10T07:55:27.010Z,56498.62
2022-10-10T07:56:31.312Z,56497.61
2022-10-10T07:57:35.132Z,56425.40
2022-10-10T07:58:38.907Z,56414.37
2022-10-10T07:59:43.223Z,56389.30
2022-10-10T08:00:46.912Z,56422.39
2022-10-10T08:01:50.617Z,56447.47
2022-10-10T08:02:54.097Z,56430.42
2022-10-10T08:03:57.782Z,56459.50
2022-10-10T08:05:01.078Z,56459.50
2022-10-10T08:06:04.349Z,56472.54
2022-10-10T08:07:13.279Z,56443.46
2022-10-10T08:08:16.657Z,56582.86
2022-10-10T08:09:20.370Z,56530.71
2022-10-10T08:10:23.815Z,56529.71
2022-10-10T08:11:27.426Z,56549.77
2022-10-10T08:12:30.733Z,56579.86
2022-10-10T08:13:35.236Z,56590.89
2022-10-10T08:14:38.706Z,56584.87
2022-10-10T08:15:42.826Z,56580.86
2022-10-10T08:16:46.225Z,56586.87
2022-10-10T08:17:55.982Z,56596.90
2022-10-10T08:18:59.831Z,56530.71
2022-10-10T08:20:04.208Z,56572.84
2022-10-10T08:21:07.575Z,56613.95
2022-10-10T08:22:11.229Z,56653.07
2022-10-10T08:23:15.031Z,56691.18
2022-10-10T08:24:19.331Z,56656.08
2022-10-10T08:25:22.495Z,56728.29
2022-10-10T08:26:29.489Z,56757.38
2022-10-10T08:27:32.467Z,56778.44
2022-10-10T08:28:36.367Z,56839.62
2022-10-10T08:29:44.926Z,56825.59
2022-10-10T08:30:47.937Z,56856.68
2022-10-10T08:31:51.654Z,56869.72
2022-10-10T08:32:54.888Z,56897.80
2022-10-10T08:34:00.353Z,56837.62
2022-10-10T08:35:03.342Z,56884.76
2022-10-10T08:37:31.830Z,56881.75
2022-10-10T08:38:32.674Z,56941.93
2022-10-10T08:39:37.056Z,57030.20
2022-10-10T08:40:49.973Z,56378.27
2022-10-10T08:41:53.031Z,57073.34
2022-10-10T08:42:56.974Z,57164.61
2022-10-10T08:44:01.458Z,57220.79
2022-10-10T08:45:05.351Z,57309.06
2022-10-10T08:46:08.651Z,57354.20
2022-10-10T08:47:12.245Z,57498.66
2022-10-10T08:48:16.251Z,57562.86
2022-10-10T08:49:27.264Z,57671.21
2022-10-10T08:50:32.845Z,57702.31
2022-10-10T08:51:36.132Z,57749.46
2022-10-10T08:52:40.014Z,57814.67
2022-10-10T08:53:47.205Z,57827.71
2022-10-10T08:54:52.834Z,57857.81
2022-10-10T08:55:55.317Z,57899.95
2022-10-10T08:56:59.003Z,57961.15
2022-10-10T08:58:02.180Z,58006.30
2022-10-10T08:59:05.670Z,58049.44
2022-10-10T09:00:09.360Z,58067.50
2022-10-10T09:01:13.938Z,58252.12
2022-10-10T09:02:23.353Z,58299.28
2022-10-10T09:03:22.292Z,58408.64
2022-10-10T09:04:32.008Z,58456.81
2022-10-10T09:05:35.714Z,58496.95
2022-10-10T09:06:39.018Z,58585.25
2022-10-10T09:07:49.760Z,58584.25
2022-10-10T09:08:53.050Z,58599.30
2022-10-10T09:09:59.602Z,58619.37
2022-10-10T09:11:03.310Z,58603.31
2022-10-10T09:12:07.191Z,58678.57
2022-10-10T09:13:13.126Z,58701.65
2022-10-10T09:14:16.439Z,58711.69
2022-10-10T09:15:20.751Z,58749.82
2022-10-10T09:16:23.938Z,58787.95
2022-10-10T09:17:27.595Z,58869.24
2022-10-10T09:18:31.303Z,58903.36
2022-10-10T09:19:40.224Z,58912.39
2022-10-10T09:22:06.216Z,58986.65
2022-10-10T09:23:22.221Z,59026.79
2022-10-10T09:24:29.646Z,59048.87
2022-10-10T09:25:33.013Z,59090.02
2022-10-10T09:26:36.552Z,59056.90
2022-10-10T09:29:01.382Z,59025.79
2022-10-10T09:30:04.681Z,59019.77
2022-10-10T09:31:08.368Z,58970.59
2022-10-10T09:32:13.153Z,58950.52
2022-10-10T09:33:16.464Z,58898.34
2022-10-10T09:34:20.365Z,58918.41
2022-10-10T09:35:23.959Z,58857.20
2022-10-10T09:36:30.555Z,58845.15
2022-10-10T09:37:46.809Z,58850.17
2022-10-10T09:38:41.628Z,58825.08
2022-10-10T09:41:06.179Z,58772.90
2022-10-10T09:44:50.258Z,58918.41
2022-10-10T09:45:55.163Z,58908.37
2022-10-10T09:46:58.541Z,58911.39
2022-10-10T09:48:04.513Z,58933.46
2022-10-10T09:49:10.653Z,58914.39
2022-10-10T09:50:18.471Z,58925.43
2022-10-10T09:51:33.813Z,58952.53
2022-10-10T09:52:36.976Z,58990.66
2022-10-10T09:53:40.276Z,59013.75
2022-10-10T09:54:43.143Z,59006.72
2022-10-10T09:55:50.592Z,59019.77
2022-10-10T09:56:54.315Z,59021.77
2022-10-10T09:57:57.713Z,59031.81
2022-10-10T09:59:01.291Z,58943.50
2022-10-10T10:00:07.895Z,58979.62
2022-10-10T10:01:11.205Z,58991.67
2022-10-10T10:02:14.732Z,59013.75
2022-10-10T10:04:38.294Z,59036.83
2022-10-10T10:05:41.210Z,59084.00
2022-10-10T10:06:44.971Z,59107.08
2022-10-10T10:07:47.635Z,59130.16
2022-10-10T10:08:58.969Z,59137.19
2022-10-10T10:10:13.013Z,59240.56
2022-10-10T10:11:15.812Z,59284.72
2022-10-10T10:12:23.107Z,59292.75
2022-10-10T10:14:48.345Z,59289.73
2022-10-10T10:15:51.581Z,59310.81
2022-10-10T10:16:54.673Z,59309.81
2022-10-10T10:17:58.867Z,59310.81
2022-10-10T10:19:07.489Z,59285.72
2022-10-10T10:20:13.438Z,59281.71
2022-10-10T10:21:20.293Z,59301.78
2022-10-10T10:22:31.103Z,59253.61
2022-10-10T10:23:34.955Z,59259.63
2022-10-10T10:24:38.462Z,59245.58
2022-10-10T10:25:42.044Z,59166.29
2022-10-10T10:26:45.231Z,59114.11
2022-10-10T10:27:49.214Z,59099.05
2022-10-10T10:28:53.776Z,59108.08
2022-10-10T10:30:06.940Z,59098.05
2022-10-10T10:31:11.540Z,59112.10
2022-10-10T10:32:19.174Z,59110.09
2022-10-10T10:33:25.505Z,59140.20
2022-10-10T10:35:57.212Z,59111.09
2022-10-10T10:37:03.153Z,59171.31
2022-10-10T10:38:07.436Z,59147.22
2022-10-10T10:57:32.224Z,58677.57
2022-10-10T10:59:04.959Z,59439.28
2022-10-10T11:00:16.923Z,59433.26
2022-10-10T11:01:21.017Z,59424.23
2022-10-10T11:01:59.502Z,59407.16
2022-10-10T11:03:05.967Z,59423.22
2022-10-10T11:05:16.183Z,59431.25
2022-10-10T11:05:19.175Z,59464.37
2022-10-10T11:06:09.869Z,59503.52
2022-10-10T11:07:19.546Z,59423.22
2022-10-10T11:08:20.808Z,59389.10
2022-10-10T11:09:48.491Z,59417.20
2022-10-10T11:10:29.574Z,59372.04
2022-10-10T11:11:33.164Z,59339.92
2022-10-10T11:14:05.853Z,59317.84
2022-10-10T11:15:10.464Z,59299.77
2022-10-10T11:16:30.271Z,59262.64
2022-10-10T11:17:20.103Z,59220.48
2022-10-10T11:18:23.506Z,59153.25
2022-10-10T11:19:27.308Z,59128.15
2022-10-10T11:20:30.317Z,59141.20
2022-10-10T11:21:33.441Z,59172.31
2022-10-10T11:22:36.724Z,59133.17
2022-10-10T11:23:40.042Z,59136.18
2022-10-10T11:24:51.060Z,59156.25
2022-10-10T11:25:54.618Z,59167.30
2022-10-10T11:26:58.917Z,59188.37
2022-10-10T11:28:14.941Z,59143.21
2022-10-10T11:29:22.567Z,59171.31
2022-10-10T11:30:28.068Z,59192.39
2022-10-10T11:31:37.205Z,59232.53
2022-10-10T11:32:40.701Z,59251.60
2022-10-10T11:33:44.309Z,59282.71
2022-10-10T11:34:54.754Z,59229.52
2022-10-10T11:35:58.451Z,59288.73
2022-10-10T11:37:01.921Z,59301.78
2022-10-10T11:38:05.452Z,59289.73
2022-10-10T11:40:37.512Z,59357.98
2022-10-10T11:41:40.553Z,59403.15
2022-10-10T11:42:47.191Z,59432.25
2022-10-10T11:43:50.573Z,59403.15
2022-10-10T11:44:54.103Z,59420.21
2022-10-10T11:46:09.185Z,59411.18
2022-10-10T11:47:13.787Z,59417.20
2022-10-10T11:48:17.461Z,59445.30
2022-10-10T11:49:20.326Z,59396.12
2022-10-10T11:50:29.558Z,59346.95
2022-10-10T11:51:32.844Z,59347.95
2022-10-10T11:52:38.082Z,59312.82
2022-10-10T11:53:41.357Z,59333.89
2022-10-10T11:54:44.732Z,59311.82
2022-10-10T11:55:59.046Z,59333.89
2022-10-10T11:57:03.497Z,59359.99
2022-10-10T11:58:06.590Z,59417.20
2022-10-10T11:59:19.792Z,59418.20
2022-10-10T12:00:36.442Z,59442.29
2022-10-10T12:01:47.270Z,59495.48
2022-10-10T12:02:50.648Z,59500.50
2022-10-10T12:03:54.340Z,59486.45
2022-10-10T12:04:57.329Z,59428.24
2022-10-10T12:06:00.529Z,59426.23
2022-10-10T12:07:04.074Z,59416.20
2022-10-10T12:08:08.386Z,59401.14
2022-10-10T12:09:11.881Z,59430.25
2022-10-10T12:10:16.686Z,59430.25
2022-10-10T12:11:33.660Z,59399.13
2022-10-10T12:12:36.848Z,59426.23
2022-10-10T12:13:44.557Z,59454.34
2022-10-10T12:14:50.432Z,59449.32
2022-10-10T12:15:53.673Z,59484.45
2022-10-10T12:16:57.723Z,59498.50
2022-10-10T12:18:01.303Z,59482.44
2022-10-10T12:19:05.442Z,59453.33
2022-10-10T12:20:09.090Z,59474.41
2022-10-10T12:21:15.353Z,59485.45
2022-10-10T12:22:19.253Z,59470.39
2022-10-10T12:23:22.764Z,59493.48
2022-10-10T12:24:26.125Z,59483.44
2022-10-10T12:25:29.211Z,59465.37
2022-10-10T12:26:32.185Z,59441.29
2022-10-10T12:27:35.354Z,59427.23
2022-10-10T12:28:38.623Z,59452.33
2022-10-10T12:29:42.602Z,59458.35
2022-10-10T12:30:45.955Z,59458.35
2022-10-10T12:31:49.213Z,59475.41
2022-10-10T12:32:53.131Z,59516.56
2022-10-10T12:33:57.009Z,59529.61
2022-10-10T12:35:00.391Z,59525.60
2022-10-10T12:36:04.452Z,59582.81
2022-10-10T12:37:07.722Z,59606.89
2022-10-10T12:38:10.470Z,59621.95
2022-10-10T12:39:13.483Z,59637.01
2022-10-10T12:40:16.299Z,59664.11
2022-10-10T12:41:19.934Z,59675.15
2022-10-10T12:42:22.870Z,59634.00
2022-10-10T12:43:25.784Z,59664.11
2022-10-10T12:44:29.032Z,59658.09
2022-10-10T12:45:32.311Z,59623.96
2022-10-10T12:46:35.392Z,59648.05
2022-10-10T12:48:03.410Z,59612.92
2022-10-10T12:48:42.986Z,59662.10
2022-10-10T12:49:46.386Z,59624.96
2022-10-10T12:50:50.372Z,59624.96
2022-10-10T12:51:53.453Z,59615.93
2022-10-10T12:52:56.533Z,59610.91
2022-10-10T12:54:00.137Z,59598.87
2022-10-10T12:55:06.732Z,59611.91
2022-10-10T12:56:08.853Z,59628.98
2022-10-10T12:57:12.133Z,59631.99
2022-10-10T12:58:26.214Z,59655.07
2022-10-10T12:59:19.736Z,59662.10
2022-10-10T13:00:23.024Z,59645.04
2022-10-10T13:01:26.389Z,59634.00
2022-10-10T13:02:29.480Z,59650.05
2022-10-10T13:03:32.343Z,59636.00
2022-10-10T13:04:38.513Z,59586.82
2022-10-10T13:05:41.273Z,59613.92
2022-10-10T13:06:44.076Z,59592.84
2022-10-10T13:07:48.152Z,59565.74
2022-10-10T13:08:51.222Z,59597.86
2022-10-10T13:09:54.618Z,59576.79
2022-10-10T13:10:57.504Z,59574.78
2022-10-10T13:12:00.663Z,59559.72
2022-10-10T13:13:03.908Z,59542.66
2022-10-10T13:14:07.034Z,59569.76
2022-10-10T13:15:10.005Z,59582.81
2022-10-10T13:16:13.208Z,59587.82
2022-10-10T13:17:15.966Z,59593.85
2022-10-10T13:18:19.551Z,59601.88
2022-10-10T13:19:22.939Z,59598.87
2022-10-10T13:20:26.425Z,59620.95
2022-10-10T13:21:29.287Z,59630.98
2022-10-10T13:22:32.703Z,59644.04
2022-10-10T13:23:35.774Z,59687.20
2022-10-10T13:24:39.047Z,59667.12
2022-10-10T13:25:42.231Z,59702.25
2022-10-10T13:26:45.214Z,59706.27
2022-10-10T13:27:48.497Z,59725.34
2022-10-10T13:28:51.945Z,59783.55
2022-10-10T13:29:58.085Z,59763.48
2022-10-10T13:31:01.755Z,59823.70
2022-10-10T13:32:05.322Z,59856.83
2022-10-10T13:33:08.298Z,59849.80
2022-10-10T13:34:11.782Z,59904.00
2022-10-10T13:35:14.767Z,59929.10
2022-10-10T13:36:17.647Z,59920.07
2022-10-10T13:37:20.729Z,59963.23
2022-10-10T13:38:23.692Z,60005.39
2022-10-10T13:39:28.413Z,60054.57
2022-10-10T13:40:31.388Z,60052.57
2022-10-10T13:41:34.584Z,60095.73
2022-10-10T13:42:37.864Z,60191.10
2022-10-10T13:43:40.728Z,60213.18
2022-10-10T13:44:44.612Z,60289.48
2022-10-10T13:45:47.405Z,60307.55
2022-10-10T13:46:50.581Z,60367.78